sensor_id;sensor_type;location;lat;lon;timestamp;pressure;altitude;pressure_sealevel;temperature;humidity
62694;BME280;48759;52.544;13.418;2023-03-04T00:02:00;101176.91;;;2.51;100.00
62694;BME280;48759;52.544;13.418;2023-03-04T00:04:27;101180.75;;;2.58;100.00
62694;BME280;48759;52.544;13.418;2023-03-04T00:06:54;101162.03;;;2.36;100.00
62694;BME280;48759;52.544;13.418;2023-03-04T00:09:21;101168.47;;;2.35;100.00
62694;BME280;48759;52.544;13.418;2023-03-04T00:11:49;101165.59;;;2.26;100.00
62694;BME280;48759;52.544;13.418;2023-03-04T00:14:15;101162.13;;;2.72;100.00
62694;BME280;48759;52.544;13.418;2023-03-04T00:16:42;101153.31;;;2.51;100.00
62694;BME280;48759;52.544;13.418;2023-03-04T00:19:09;101147.09;;;2.97;100.00
62694;BME280;48759;52.544;13.418;2023-03-04T00:21:36;101158.28;;;2.75;100.00
62694;BME280;48759;52.544;13.418;2023-03-04T00:24:03;101163.31;;;2.60;100.00
62694;BME280;48759;52.544;13.418;2023-03-04T00:26:31;101152.13;;;2.83;100.00
62694;BME280;48759;52.544;13.418;2023-03-04T00:28:59;101157.78;;;3.08;100.00
62694;BME280;48759;52.544;13.418;2023-03-04T00:31:25;101153.16;;;3.19;100.00
62694;BME280;48759;52.544;13.418;2023-03-04T00:33:52;101143.72;;;3.23;100.00
62694;BME280;48759;52.544;13.418;2023-03-04T00:36:19;101149.00;;;2.68;100.00
62694;BME280;48759;52.544;13.418;2023-03-04T00:38:46;101145.56;;;2.85;100.00
62694;BME280;48759;52.544;13.418;2023-03-04T00:41:13;101150.69;;;2.79;100.00
62694;BME280;48759;52.544;13.418;2023-03-04T00:43:39;101141.97;;;2.75;100.00
62694;BME280;48759;52.544;13.418;2023-03-04T00:46:07;101140.38;;;2.92;100.00
62694;BME280;48759;52.544;13.418;2023-03-04T00:48:34;101140.41;;;2.82;100.00
62694;BME280;48759;52.544;13.418;2023-03-04T00:51:03;101141.13;;;2.75;100.00
62694;BME280;48759;52.544;13.418;2023-03-04T00:53:29;101137.28;;;2.67;100.00
62694;BME280;48759;52.544;13.418;2023-03-04T00:55:56;101138.53;;;2.73;100.00
62694;BME280;48759;52.544;13.418;2023-03-04T00:58:23;101135.88;;;2.54;100.00
62694;BME280;48759;52.544;13.418;2023-03-04T01:00:49;101131.56;;;2.61;100.00
62694;BME280;48759;52.544;13.418;2023-03-04T01:03:17;101125.41;;;2.59;100.00
62694;BME280;48759;52.544;13.418;2023-03-04T01:05:44;101134.69;;;2.66;100.00
62694;BME280;48759;52.544;13.418;2023-03-04T01:08:11;101148.16;;;2.58;100.00
62694;BME280;48759;52.544;13.418;2023-03-04T01:10:38;101140.25;;;2.84;100.00
62694;BME280;48759;52.544;13.418;2023-03-04T01:13:04;101115.81;;;2.64;100.00
62694;BME280;48759;52.544;13.418;2023-03-04T01:15:31;101120.75;;;2.98;100.00
62694;BME280;48759;52.544;13.418;2023-03-04T01:17:58;101128.28;;;2.57;100.00
62694;BME280;48759;52.544;13.418;2023-03-04T01:20:26;101117.44;;;3.04;100.00
62694;BME280;48759;52.544;13.418;2023-03-04T01:22:53;101112.63;;;2.88;100.00
62694;BME280;48759;52.544;13.418;2023-03-04T01:25:19;101112.97;;;2.66;100.00
62694;BME280;48759;52.544;13.418;2023-03-04T01:27:46;101106.25;;;3.17;100.00
62694;BME280;48759;52.544;13.418;2023-03-04T01:30:13;101117.53;;;2.75;100.00
62694;BME280;48759;52.544;13.418;2023-03-04T01:32:40;101104.47;;;2.88;100.00
62694;BME280;48759;52.544;13.418;2023-03-04T01:35:07;101107.53;;;3.13;100.00
62694;BME280;48759;52.544;13.418;2023-03-04T01:37:35;101109.78;;;2.80;100.00
62694;BME280;48759;52.544;13.418;2023-03-04T01:40:02;101094.31;;;2.81;100.00
62694;BME280;48759;52.544;13.418;2023-03-04T01:42:33;101124.94;;;2.92;100.00
62694;BME280;48759;52.544;13.418;2023-03-04T01:45:01;101094.53;;;3.06;100.00
62694;BME280;48759;52.544;13.418;2023-03-04T01:47:30;101097.47;;;3.60;100.00
62694;BME280;48759;52.544;13.418;2023-03-04T01:50:00;101079.28;;;3.33;100.00
62694;BME280;48759;52.544;13.418;2023-03-04T01:52:27;101080.31;;;3.32;100.00
62694;BME280;48759;52.544;13.418;2023-03-04T01:54:56;101080.41;;;3.40;100.00
62694;BME280;48759;52.544;13.418;2023-03-04T01:57:24;101078.13;;;3.35;100.00
62694;BME280;48759;52.544;13.418;2023-03-04T02:00:17;101072.00;;;3.51;100.00
62694;BME280;48759;52.544;13.418;2023-03-04T02:02:44;101077.44;;;3.51;100.00
62694;BME280;48759;52.544;13.418;2023-03-04T02:05:11;101106.50;;;3.33;100.00
62694;BME280;48759;52.544;13.418;2023-03-04T02:07:39;101076.97;;;3.28;100.00
62694;BME280;48759;52.544;13.418;2023-03-04T02:10:09;101082.28;;;3.57;100.00
62694;BME280;48759;52.544;13.418;2023-03-04T02:12:36;101065.78;;;3.41;100.00
62694;BME280;48759;52.544;13.418;2023-03-04T02:15:04;101065.66;;;3.60;100.00
62694;BME280;48759;52.544;13.418;2023-03-04T02:17:32;101077.81;;;3.83;100.00
62694;BME280;48759;52.544;13.418;2023-03-04T02:20:02;101064.66;;;3.61;100.00
62694;BME280;48759;52.544;13.418;2023-03-04T02:22:32;101069.72;;;3.56;100.00
62694;BME280;48759;52.544;13.418;2023-03-04T02:25:06;101065.31;;;3.91;100.00
62694;BME280;48759;52.544;13.418;2023-03-04T02:27:36;101062.59;;;3.45;100.00
62694;BME280;48759;52.544;13.418;2023-03-04T02:30:04;101047.25;;;3.72;100.00
62694;BME280;48759;52.544;13.418;2023-03-04T02:32:31;101046.03;;;4.02;100.00
62694;BME280;48759;52.544;13.418;2023-03-04T02:34:58;101036.53;;;3.88;100.00
62694;BME280;48759;52.544;13.418;2023-03-04T02:37:25;101035.88;;;3.59;100.00
62694;BME280;48759;52.544;13.418;2023-03-04T02:39:51;101036.72;;;4.12;100.00
62694;BME280;48759;52.544;13.418;2023-03-04T02:42:18;101030.53;;;4.02;100.00
62694;BME280;48759;52.544;13.418;2023-03-04T02:44:46;101028.91;;;3.92;100.00
62694;BME280;48759;52.544;13.418;2023-03-04T02:47:16;101020.19;;;3.70;100.00
62694;BME280;48759;52.544;13.418;2023-03-04T02:49:44;101025.41;;;3.99;100.00
62694;BME280;48759;52.544;13.418;2023-03-04T02:52:13;101020.56;;;3.93;100.00
62694;BME280;48759;52.544;13.418;2023-03-04T02:54:40;101025.69;;;4.14;100.00
62694;BME280;48759;52.544;13.418;2023-03-04T02:57:09;101014.91;;;4.30;100.00
62694;BME280;48759;52.544;13.418;2023-03-04T02:59:38;101017.66;;;4.12;100.00
62694;BME280;48759;52.544;13.418;2023-03-04T03:02:07;101024.00;;;3.95;100.00
62694;BME280;48759;52.544;13.418;2023-03-04T03:04:36;101013.16;;;4.47;100.00
62694;BME280;48759;52.544;13.418;2023-03-04T03:07:03;101015.88;;;4.21;100.00
62694;BME280;48759;52.544;13.418;2023-03-04T03:09:30;101018.34;;;4.32;100.00
62694;BME280;48759;52.544;13.418;2023-03-04T03:11:57;101016.00;;;4.37;100.00
62694;BME280;48759;52.544;13.418;2023-03-04T03:14:23;101016.66;;;4.57;100.00
62694;BME280;48759;52.544;13.418;2023-03-04T03:16:50;101018.72;;;4.11;100.00
62694;BME280;48759;52.544;13.418;2023-03-04T03:19:18;101013.84;;;4.23;100.00
62694;BME280;48759;52.544;13.418;2023-03-04T03:21:45;101003.72;;;4.33;100.00
62694;BME280;48759;52.544;13.418;2023-03-04T03:24:12;101006.03;;;4.02;100.00
62694;BME280;48759;52.544;13.418;2023-03-04T03:26:38;101002.59;;;4.18;100.00
62694;BME280;48759;52.544;13.418;2023-03-04T03:29:05;101003.06;;;4.39;100.00
62694;BME280;48759;52.544;13.418;2023-03-04T03:31:32;100999.66;;;4.37;100.00
62694;BME280;48759;52.544;13.418;2023-03-04T03:33:59;100989.28;;;4.67;100.00
62694;BME280;48759;52.544;13.418;2023-03-04T03:36:27;100984.56;;;4.43;100.00
62694;BME280;48759;52.544;13.418;2023-03-04T03:38:53;100988.94;;;4.70;100.00
62694;BME280;48759;52.544;13.418;2023-03-04T03:41:20;100988.06;;;4.95;100.00
62694;BME280;48759;52.544;13.418;2023-03-04T03:43:47;100982.22;;;4.30;100.00
62694;BME280;48759;52.544;13.418;2023-03-04T03:46:13;100982.13;;;4.66;100.00
62694;BME280;48759;52.544;13.418;2023-03-04T03:48:40;100984.09;;;4.81;100.00
62694;BME280;48759;52.544;13.418;2023-03-04T03:51:07;100977.94;;;4.53;100.00
62694;BME280;48759;52.544;13.418;2023-03-04T03:53:35;100977.47;;;4.92;100.00
62694;BME280;48759;52.544;13.418;2023-03-04T03:56:02;100978.28;;;4.50;100.00
62694;BME280;48759;52.544;13.418;2023-03-04T03:58:29;100974.44;;;4.35;100.00
62694;BME280;48759;52.544;13.418;2023-03-04T04:00:55;100977.44;;;4.50;100.00
62694;BME280;48759;52.544;13.418;2023-03-04T04:03:22;100968.34;;;4.75;100.00
62694;BME280;48759;52.544;13.418;2023-03-04T04:05:49;100969.31;;;4.32;100.00
62694;BME280;48759;52.544;13.418;2023-03-04T04:08:16;100972.88;;;4.07;100.00
62694;BME280;48759;52.544;13.418;2023-03-04T04:10:45;100972.56;;;4.61;100.00
62694;BME280;48759;52.544;13.418;2023-03-04T04:13:11;100966.84;;;4.73;100.00
62694;BME280;48759;52.544;13.418;2023-03-04T04:15:38;100970.16;;;4.58;100.00
62694;BME280;48759;52.544;13.418;2023-03-04T04:18:05;100965.78;;;4.66;100.00
62694;BME280;48759;52.544;13.418;2023-03-04T04:20:32;100962.81;;;4.59;100.00
62694;BME280;48759;52.544;13.418;2023-03-04T04:22:59;100968.91;;;4.53;100.00
62694;BME280;48759;52.544;13.418;2023-03-04T04:25:26;100955.59;;;4.76;100.00
62694;BME280;48759;52.544;13.418;2023-03-04T04:27:55;100960.31;;;4.66;100.00
62694;BME280;48759;52.544;13.418;2023-03-04T04:30:21;100964.66;;;4.84;100.00
62694;BME280;48759;52.544;13.418;2023-03-04T04:32:48;100965.28;;;5.04;100.00
62694;BME280;48759;52.544;13.418;2023-03-04T04:35:15;100966.06;;;4.88;100.00
62694;BME280;48759;52.544;13.418;2023-03-04T04:37:42;100950.69;;;5.21;100.00
62694;BME280;48759;52.544;13.418;2023-03-04T04:40:09;100964.66;;;4.84;100.00
62694;BME280;48759;52.544;13.418;2023-03-04T04:42:36;100955.81;;;4.90;100.00
62694;BME280;48759;52.544;13.418;2023-03-04T04:45:06;100954.28;;;4.88;100.00
62694;BME280;48759;52.544;13.418;2023-03-04T04:47:33;100952.81;;;4.68;100.00
62694;BME280;48759;52.544;13.418;2023-03-04T04:50:00;100956.63;;;4.83;100.00
62694;BME280;48759;52.544;13.418;2023-03-04T04:52:26;100949.22;;;5.01;100.00
62694;BME280;48759;52.544;13.418;2023-03-04T04:54:53;100939.44;;;5.24;100.00
62694;BME280;48759;52.544;13.418;2023-03-04T04:57:20;100944.22;;;5.30;100.00
62694;BME280;48759;52.544;13.418;2023-03-04T04:59:46;100940.63;;;5.22;100.00
62694;BME280;48759;52.544;13.418;2023-03-04T05:02:15;100944.44;;;5.37;100.00
62694;BME280;48759;52.544;13.418;2023-03-04T05:04:41;100944.13;;;4.98;100.00
62694;BME280;48759;52.544;13.418;2023-03-04T05:07:08;100938.00;;;5.04;100.00
62694;BME280;48759;52.544;13.418;2023-03-04T05:09:35;100935.38;;;5.28;100.00
62694;BME280;48759;52.544;13.418;2023-03-04T05:12:02;100943.84;;;5.17;100.00
62694;BME280;48759;52.544;13.418;2023-03-04T05:14:29;100937.75;;;4.81;100.00
62694;BME280;48759;52.544;13.418;2023-03-04T05:16:55;100945.28;;;5.37;100.00
62694;BME280;48759;52.544;13.418;2023-03-04T05:19:24;100946.59;;;5.25;100.00
62694;BME280;48759;52.544;13.418;2023-03-04T05:21:50;100937.72;;;5.23;100.00
62694;BME280;48759;52.544;13.418;2023-03-04T05:24:17;100931.63;;;5.29;100.00
62694;BME280;48759;52.544;13.418;2023-03-04T05:26:44;100934.91;;;5.73;100.00
62694;BME280;48759;52.544;13.418;2023-03-04T05:29:11;100942.38;;;5.39;100.00
62694;BME280;48759;52.544;13.418;2023-03-04T05:31:37;100936.94;;;4.97;100.00
62694;BME280;48759;52.544;13.418;2023-03-04T05:34:04;100931.00;;;5.76;100.00
62694;BME280;48759;52.544;13.418;2023-03-04T05:36:32;100930.25;;;5.42;100.00
62694;BME280;48759;52.544;13.418;2023-03-04T05:38:59;100934.88;;;4.99;100.00
62694;BME280;48759;52.544;13.418;2023-03-04T05:41:26;100928.78;;;5.05;100.00
62694;BME280;48759;52.544;13.418;2023-03-04T05:43:52;100930.97;;;5.60;100.00
62694;BME280;48759;52.544;13.418;2023-03-04T05:46:20;100938.97;;;5.37;100.00
62694;BME280;48759;52.544;13.418;2023-03-04T05:48:50;100939.50;;;5.73;100.00
62694;BME280;48759;52.544;13.418;2023-03-04T05:51:18;100920.72;;;5.62;100.00
62694;BME280;48759;52.544;13.418;2023-03-04T05:53:46;100921.75;;;5.85;100.00
62694;BME280;48759;52.544;13.418;2023-03-04T05:56:15;100927.84;;;5.30;100.00
62694;BME280;48759;52.544;13.418;2023-03-04T05:58:41;100919.03;;;5.61;100.00
62694;BME280;48759;52.544;13.418;2023-03-04T06:01:09;100926.88;;;5.80;100.00
62694;BME280;48759;52.544;13.418;2023-03-04T06:03:36;100931.50;;;5.88;100.00
62694;BME280;48759;52.544;13.418;2023-03-04T06:06:03;100924.31;;;5.87;100.00
62694;BME280;48759;52.544;13.418;2023-03-04T06:08:31;100930.97;;;6.08;100.00
62694;BME280;48759;52.544;13.418;2023-03-04T06:11:02;100927.91;;;5.79;100.00
62694;BME280;48759;52.544;13.418;2023-03-04T06:13:29;100941.56;;;5.71;100.00
62694;BME280;48759;52.544;13.418;2023-03-04T06:15:57;100933.72;;;5.92;100.00
62694;BME280;48759;52.544;13.418;2023-03-04T06:18:26;100931.00;;;6.00;100.00
62694;BME280;48759;52.544;13.418;2023-03-04T06:20:55;100930.13;;;6.16;100.00
62694;BME280;48759;52.544;13.418;2023-03-04T06:23:22;100932.34;;;6.12;100.00
62694;BME280;48759;52.544;13.418;2023-03-04T06:25:51;100934.38;;;6.02;100.00
62694;BME280;48759;52.544;13.418;2023-03-04T06:28:19;100929.94;;;5.77;100.00
62694;BME280;48759;52.544;13.418;2023-03-04T06:30:46;100939.19;;;5.84;100.00
62694;BME280;48759;52.544;13.418;2023-03-04T06:33:12;100919.88;;;5.77;100.00
62694;BME280;48759;52.544;13.418;2023-03-04T06:35:39;100930.63;;;5.55;100.00
62694;BME280;48759;52.544;13.418;2023-03-04T06:38:06;100941.03;;;5.51;100.00
62694;BME280;48759;52.544;13.418;2023-03-04T06:40:32;100931.31;;;5.89;100.00
62694;BME280;48759;52.544;13.418;2023-03-04T06:42:59;100948.22;;;5.93;100.00
62694;BME280;48759;52.544;13.418;2023-03-04T06:45:27;100940.19;;;5.51;100.00
62694;BME280;48759;52.544;13.418;2023-03-04T06:47:54;100932.69;;;5.53;100.00
62694;BME280;48759;52.544;13.418;2023-03-04T06:50:21;100947.38;;;5.84;100.00
62694;BME280;48759;52.544;13.418;2023-03-04T06:52:47;100938.16;;;5.53;100.00
62694;BME280;48759;52.544;13.418;2023-03-04T06:55:14;100943.97;;;5.82;100.00
62694;BME280;48759;52.544;13.418;2023-03-04T06:57:41;100939.84;;;5.70;100.00
62694;BME280;48759;52.544;13.418;2023-03-04T07:00:09;100939.84;;;5.94;100.00
62694;BME280;48759;52.544;13.418;2023-03-04T07:02:37;100934.00;;;5.41;100.00
62694;BME280;48759;52.544;13.418;2023-03-04T07:05:04;100936.59;;;5.58;100.00
62694;BME280;48759;52.544;13.418;2023-03-04T07:07:31;100955.22;;;5.71;100.00
62694;BME280;48759;52.544;13.418;2023-03-04T07:09:58;100949.75;;;5.79;100.00
62694;BME280;48759;52.544;13.418;2023-03-04T07:12:24;100954.19;;;5.80;100.00
62694;BME280;48759;52.544;13.418;2023-03-04T07:14:51;100948.25;;;5.76;100.00
62694;BME280;48759;52.544;13.418;2023-03-04T07:17:18;100962.06;;;5.83;100.00
62694;BME280;48759;52.544;13.418;2023-03-04T07:19:46;100950.41;;;5.57;100.00
62694;BME280;48759;52.544;13.418;2023-03-04T07:22:12;100966.63;;;5.50;100.00
62694;BME280;48759;52.544;13.418;2023-03-04T07:24:39;100958.09;;;5.45;100.00
62694;BME280;48759;52.544;13.418;2023-03-04T07:27:06;100950.75;;;5.54;100.00
62694;BME280;48759;52.544;13.418;2023-03-04T07:29:33;100948.88;;;5.70;100.00
62694;BME280;48759;52.544;13.418;2023-03-04T07:32:00;100949.75;;;5.87;100.00
62694;BME280;48759;52.544;13.418;2023-03-04T07:34:26;100940.84;;;6.26;100.00
62694;BME280;48759;52.544;13.418;2023-03-04T07:36:54;100946.13;;;6.43;100.00
62694;BME280;48759;52.544;13.418;2023-03-04T07:39:21;100948.16;;;6.49;100.00
62694;BME280;48759;52.544;13.418;2023-03-04T07:41:48;100949.84;;;6.50;100.00
62694;BME280;48759;52.544;13.418;2023-03-04T07:44:14;100950.44;;;6.22;100.00
62694;BME280;48759;52.544;13.418;2023-03-04T07:46:41;100947.94;;;6.75;100.00
62694;BME280;48759;52.544;13.418;2023-03-04T07:49:10;100950.03;;;6.49;100.00
62694;BME280;48759;52.544;13.418;2023-03-04T07:51:37;100960.91;;;6.73;100.00
62694;BME280;48759;52.544;13.418;2023-03-04T07:54:05;100963.25;;;5.81;100.00
62694;BME280;48759;52.544;13.418;2023-03-04T07:56:33;100950.75;;;6.19;100.00
62694;BME280;48759;52.544;13.418;2023-03-04T07:59:00;100943.75;;;6.24;100.00
62694;BME280;48759;52.544;13.418;2023-03-04T08:01:29;100948.78;;;6.68;100.00
62694;BME280;48759;52.544;13.418;2023-03-04T08:03:57;100939.41;;;6.78;100.00
62694;BME280;48759;52.544;13.418;2023-03-04T08:06:24;100948.00;;;6.43;100.00
62694;BME280;48759;52.544;13.418;2023-03-04T08:08:56;100939.78;;;6.51;100.00
62694;BME280;48759;52.544;13.418;2023-03-04T08:11:26;100941.16;;;6.55;100.00
62694;BME280;48759;52.544;13.418;2023-03-04T08:13:53;100934.22;;;5.96;100.00
62694;BME280;48759;52.544;13.418;2023-03-04T08:16:21;100945.44;;;6.41;100.00
62694;BME280;48759;52.544;13.418;2023-03-04T08:18:50;100944.06;;;6.53;100.00
62694;BME280;48759;52.544;13.418;2023-03-04T08:21:19;100943.75;;;6.24;100.00
62694;BME280;48759;52.544;13.418;2023-03-04T08:23:46;100937.97;;;5.87;100.00
62694;BME280;48759;52.544;13.418;2023-03-04T08:26:15;100932.97;;;6.39;100.00
62694;BME280;48759;52.544;13.418;2023-03-04T08:28:44;100933.50;;;6.34;100.00
62694;BME280;48759;52.544;13.418;2023-03-04T08:31:12;100939.84;;;6.19;100.00
62694;BME280;48759;52.544;13.418;2023-03-04T08:33:39;100937.97;;;6.11;100.00
62694;BME280;48759;52.544;13.418;2023-03-04T08:36:06;100928.91;;;6.10;100.00
62694;BME280;48759;52.544;13.418;2023-03-04T08:38:33;100929.59;;;5.64;100.00
62694;BME280;48759;52.544;13.418;2023-03-04T08:41:00;100935.75;;;6.06;100.00
62694;BME280;48759;52.544;13.418;2023-03-04T08:43:27;100933.03;;;5.98;100.00
62694;BME280;48759;52.544;13.418;2023-03-04T08:45:55;100924.81;;;6.14;100.00
62694;BME280;48759;52.544;13.418;2023-03-04T08:48:22;100916.56;;;6.47;100.00
62694;BME280;48759;52.544;13.418;2023-03-04T08:50:49;100917.34;;;6.64;100.00
62694;BME280;48759;52.544;13.418;2023-03-04T08:53:17;100917.97;;;6.27;100.00
62694;BME280;48759;52.544;13.418;2023-03-04T08:55:44;100920.34;;;6.30;100.00
62694;BME280;48759;52.544;13.418;2023-03-04T08:58:12;100916.22;;;6.34;100.00
62694;BME280;48759;52.544;13.418;2023-03-04T09:00:40;100918.31;;;6.87;100.00
62694;BME280;48759;52.544;13.418;2023-03-04T09:03:10;100921.53;;;6.35;100.00
62694;BME280;48759;52.544;13.418;2023-03-04T09:05:37;100919.84;;;6.89;100.00
62694;BME280;48759;52.544;13.418;2023-03-04T09:08:04;100919.56;;;6.76;100.00
62694;BME280;48759;52.544;13.418;2023-03-04T09:10:31;100911.84;;;6.72;100.00
62694;BME280;48759;52.544;13.418;2023-03-04T09:12:58;100927.66;;;6.53;100.00
62694;BME280;48759;52.544;13.418;2023-03-04T09:15:25;100911.22;;;7.09;100.00
62694;BME280;48759;52.544;13.418;2023-03-04T09:17:52;100920.50;;;7.00;100.00
62694;BME280;48759;52.544;13.418;2023-03-04T09:20:20;100923.25;;;6.91;100.00
62694;BME280;48759;52.544;13.418;2023-03-04T09:22:47;100940.91;;;7.20;100.00
62694;BME280;48759;52.544;13.418;2023-03-04T09:25:14;100928.09;;;6.81;100.00
62694;BME280;48759;52.544;13.418;2023-03-04T09:27:40;100935.28;;;7.13;100.00
62694;BME280;48759;52.544;13.418;2023-03-04T09:30:08;100930.03;;;7.04;100.00
62694;BME280;48759;52.544;13.418;2023-03-04T09:32:35;100942.34;;;6.52;100.00
62694;BME280;48759;52.544;13.418;2023-03-04T09:35:02;100934.38;;;6.90;100.00
62694;BME280;48759;52.544;13.418;2023-03-04T09:37:30;100940.97;;;6.48;100.00
62694;BME280;48759;52.544;13.418;2023-03-04T09:39:57;100947.41;;;6.72;100.00
62694;BME280;48759;52.544;13.418;2023-03-04T09:42:26;100947.41;;;6.80;100.00
62694;BME280;48759;52.544;13.418;2023-03-04T09:44:56;100944.09;;;7.01;100.00
62694;BME280;48759;52.544;13.418;2023-03-04T09:47:23;100936.69;;;6.62;100.00
62694;BME280;48759;52.544;13.418;2023-03-04T09:49:54;100934.66;;;6.48;100.00
62694;BME280;48759;52.544;13.418;2023-03-04T09:52:29;100939.03;;;6.73;100.00
62694;BME280;48759;52.544;13.418;2023-03-04T09:55:04;100945.03;;;7.16;100.00
62694;BME280;48759;52.544;13.418;2023-03-04T09:57:43;100942.59;;;7.21;100.00
62694;BME280;48759;52.544;13.418;2023-03-04T10:00:15;100942.06;;;7.56;98.16
62694;BME280;48759;52.544;13.418;2023-03-04T10:02:53;100944.56;;;7.35;99.36
62694;BME280;48759;52.544;13.418;2023-03-04T10:05:27;100944.56;;;7.35;100.00
62694;BME280;48759;52.544;13.418;2023-03-04T10:07:57;100948.19;;;7.58;97.24
62694;BME280;48759;52.544;13.418;2023-03-04T10:10:31;100950.56;;;7.61;97.35
62694;BME280;48759;52.544;13.418;2023-03-04T10:13:00;100939.25;;;7.64;97.55
62694;BME280;48759;52.544;13.418;2023-03-04T10:15:32;100939.38;;;7.48;97.73
62694;BME280;48759;52.544;13.418;2023-03-04T10:18:06;100941.56;;;7.76;90.23
62694;BME280;48759;52.544;13.418;2023-03-04T10:20:47;100935.97;;;7.69;87.02
62694;BME280;48759;52.544;13.418;2023-03-04T10:23:18;100950.59;;;7.30;92.25
62694;BME280;48759;52.544;13.418;2023-03-04T10:25:49;100944.16;;;7.46;94.13
62694;BME280;48759;52.544;13.418;2023-03-04T10:28:20;100929.25;;;7.26;93.37
62694;BME280;48759;52.544;13.418;2023-03-04T10:30:52;100928.63;;;6.77;100.00
62694;BME280;48759;52.544;13.418;2023-03-04T10:33:25;100930.59;;;7.30;96.78
62694;BME280;48759;52.544;13.418;2023-03-04T10:35:55;100938.66;;;7.23;94.84
62694;BME280;48759;52.544;13.418;2023-03-04T10:38:24;100938.75;;;7.38;95.68
62694;BME280;48759;52.544;13.418;2023-03-04T10:40:52;100929.31;;;7.86;90.23
62694;BME280;48759;52.544;13.418;2023-03-04T10:43:20;100936.44;;;7.50;93.59
62694;BME280;48759;52.544;13.418;2023-03-04T10:45:47;100942.47;;;7.45;96.33
62694;BME280;48759;52.544;13.418;2023-03-04T10:48:18;100936.94;;;7.53;94.21
62694;BME280;48759;52.544;13.418;2023-03-04T10:50:46;100941.72;;;6.89;93.47
62694;BME280;48759;52.544;13.418;2023-03-04T10:53:30;100935.28;;;6.74;96.48
62694;BME280;48759;52.544;13.418;2023-03-04T10:56:00;100935.13;;;6.68;98.60
62694;BME280;48759;52.544;13.418;2023-03-04T10:58:28;100948.19;;;6.97;96.79
62694;BME280;48759;52.544;13.418;2023-03-04T11:01:01;100930.09;;;6.87;92.48
62694;BME280;48759;52.544;13.418;2023-03-04T11:03:30;100934.25;;;7.45;85.29
62694;BME280;48759;52.544;13.418;2023-03-04T11:06:09;100942.16;;;6.62;86.61
62694;BME280;48759;52.544;13.418;2023-03-04T11:08:38;100942.97;;;7.18;83.29
62694;BME280;48759;52.544;13.418;2023-03-04T11:11:21;100939.56;;;7.16;82.56
62694;BME280;48759;52.544;13.418;2023-03-04T11:13:52;100947.03;;;7.76;78.38
62694;BME280;48759;52.544;13.418;2023-03-04T11:16:24;100946.88;;;7.23;78.43
62694;BME280;48759;52.544;13.418;2023-03-04T11:18:53;100948.97;;;7.13;78.94
62694;BME280;48759;52.544;13.418;2023-03-04T11:21:22;100947.22;;;7.20;79.04
62694;BME280;48759;52.544;13.418;2023-03-04T11:23:53;100942.75;;;7.50;78.76
62694;BME280;48759;52.544;13.418;2023-03-04T11:26:25;100937.38;;;7.34;79.18
62694;BME280;48759;52.544;13.418;2023-03-04T11:28:58;100948.34;;;7.34;77.13
62694;BME280;48759;52.544;13.418;2023-03-04T11:31:29;100942.25;;;7.55;75.82
62694;BME280;48759;52.544;13.418;2023-03-04T11:34:01;100967.06;;;6.83;76.21
62694;BME280;48759;52.544;13.418;2023-03-04T11:36:34;100954.31;;;7.38;74.36
62694;BME280;48759;52.544;13.418;2023-03-04T11:39:13;100940.44;;;7.39;73.60
62694;BME280;48759;52.544;13.418;2023-03-04T11:41:49;100962.19;;;7.10;72.06
62694;BME280;48759;52.544;13.418;2023-03-04T11:44:18;100947.72;;;7.24;71.08
62694;BME280;48759;52.544;13.418;2023-03-04T11:46:53;100954.00;;;7.02;70.28
62694;BME280;48759;52.544;13.418;2023-03-04T11:49:38;100955.41;;;7.51;69.22
62694;BME280;48759;52.544;13.418;2023-03-04T11:52:18;100960.06;;;7.20;68.83
62694;BME280;48759;52.544;13.418;2023-03-04T11:55:00;100956.84;;;7.47;68.37
62694;BME280;48759;52.544;13.418;2023-03-04T11:57:35;100950.44;;;7.32;68.72
62694;BME280;48759;52.544;13.418;2023-03-04T12:00:23;100951.38;;;7.16;71.46
62694;BME280;48759;52.544;13.418;2023-03-04T12:03:20;100944.97;;;6.93;72.73
62694;BME280;48759;52.544;13.418;2023-03-04T12:05:57;100948.59;;;6.85;73.11
62694;BME280;48759;52.544;13.418;2023-03-04T12:08:41;100939.78;;;7.37;71.32
62694;BME280;48759;52.544;13.418;2023-03-04T12:11:21;100941.84;;;7.35;69.11
62694;BME280;48759;52.544;13.418;2023-03-04T12:14:20;100958.00;;;6.83;70.68
62694;BME280;48759;52.544;13.418;2023-03-04T12:17:19;100959.56;;;6.69;71.63
62694;BME280;48759;52.544;13.418;2023-03-04T12:22:43;100949.16;;;7.65;65.53
62694;BME280;48759;52.544;13.418;2023-03-04T12:25:35;100949.16;;;7.12;67.01
62694;BME280;48759;52.544;13.418;2023-03-04T12:28:15;100948.94;;;7.21;65.83
62694;BME280;48759;52.544;13.418;2023-03-04T12:31:01;100937.16;;;8.12;63.85
62694;BME280;48759;52.544;13.418;2023-03-04T12:33:36;100945.66;;;7.57;64.46
62694;BME280;48759;52.544;13.418;2023-03-04T12:36:14;100946.09;;;7.07;64.68
62694;BME280;48759;52.544;13.418;2023-03-04T12:38:58;100943.69;;;7.65;64.01
62694;BME280;48759;52.544;13.418;2023-03-04T12:41:33;100946.91;;;7.92;62.36
62694;BME280;48759;52.544;13.418;2023-03-04T12:44:12;100934.34;;;7.29;62.36
62694;BME280;48759;52.544;13.418;2023-03-04T12:46:53;100946.19;;;7.52;61.68
62694;BME280;48759;52.544;13.418;2023-03-04T12:49:38;100947.53;;;7.56;61.09
62694;BME280;48759;52.544;13.418;2023-03-04T12:52:11;100957.50;;;7.49;59.55
62694;BME280;48759;52.544;13.418;2023-03-04T12:54:44;100952.63;;;7.59;59.75
62694;BME280;48759;52.544;13.418;2023-03-04T12:57:13;100946.06;;;7.15;58.88